createdAt,value
2022-12-16T00:01:36.760Z,92.91
2022-12-16T00:04:03.895Z,93.00
2022-12-16T00:06:32.894Z,93.07
2022-12-16T00:09:00.759Z,92.76
2022-12-16T00:11:28.359Z,93.08
2022-12-16T00:13:55.390Z,93.08
2022-12-16T00:16:22.630Z,93.12
2022-12-16T00:18:51.816Z,93.15
2022-12-16T00:21:20.001Z,93.12
2022-12-16T00:23:47.672Z,93.10
2022-12-16T00:26:14.768Z,92.81
2022-12-16T00:28:44.033Z,93.19
2022-12-16T00:31:12.028Z,93.45
2022-12-16T00:33:39.061Z,93.25
2022-12-16T00:36:06.488Z,93.18
2022-12-16T00:38:33.551Z,93.27
2022-12-16T00:41:00.705Z,93.13
2022-12-16T00:43:27.752Z,93.35
2022-12-16T00:45:54.820Z,93.55
2022-12-16T00:48:25.679Z,93.45
2022-12-16T00:50:55.075Z,93.29
2022-12-16T00:53:26.132Z,93.08
2022-12-16T00:56:02.732Z,93.07
2022-12-16T00:58:29.783Z,93.35
2022-12-16T01:00:56.843Z,93.39
2022-12-16T01:03:23.943Z,93.32
2022-12-16T01:05:51.098Z,93.31
2022-12-16T01:08:19.599Z,93.51
2022-12-16T01:10:55.514Z,93.66
2022-12-16T01:13:24.601Z,93.88
2022-12-16T01:15:51.900Z,93.87
2022-12-16T01:18:19.666Z,94.05
2022-12-16T01:20:46.788Z,94.11
2022-12-16T01:23:13.709Z,94.38
2022-12-16T01:25:40.826Z,94.10
2022-12-16T01:28:07.862Z,94.07
2022-12-16T01:30:35.563Z,94.27
2022-12-16T01:33:02.608Z,94.26
2022-12-16T01:35:54.713Z,94.15
2022-12-16T01:38:17.007Z,94.22
2022-12-16T01:40:44.010Z,94.05
2022-12-16T01:43:13.200Z,94.28
2022-12-16T01:45:40.527Z,94.30
2022-12-16T01:48:25.351Z,94.46
2022-12-16T01:50:55.615Z,94.16
2022-12-16T01:53:28.124Z,94.58
2022-12-16T01:55:55.920Z,94.73
2022-12-16T01:58:26.516Z,94.52
2022-12-16T02:00:54.638Z,94.36
2022-12-16T02:03:22.845Z,94.76
2022-12-16T02:05:50.954Z,94.57
2022-12-16T02:08:21.214Z,94.99
2022-12-16T02:11:14.474Z,94.68
2022-12-16T02:13:55.864Z,94.51
2022-12-16T02:16:53.545Z,94.89
2022-12-16T02:19:44.005Z,95.16
2022-12-16T02:22:44.834Z,95.34
2022-12-16T02:25:42.227Z,95.35
2022-12-16T02:28:13.452Z,95.26
2022-12-16T02:30:49.520Z,95.69
2022-12-16T02:33:32.027Z,95.56
2022-12-16T02:36:08.730Z,95.53
2022-12-16T02:38:56.454Z,95.53
2022-12-16T02:41:42.518Z,95.42
2022-12-16T02:44:11.040Z,95.56
2022-12-16T02:46:43.303Z,95.54
2022-12-16T02:49:30.714Z,95.54
2022-12-16T02:51:59.375Z,95.51
2022-12-16T02:54:26.616Z,95.44
2022-12-16T02:57:05.140Z,95.73
2022-12-16T02:59:41.453Z,95.74
2022-12-16T03:02:31.353Z,95.98
2022-12-16T03:05:12.915Z,95.80
2022-12-16T03:07:42.357Z,96.11
2022-12-16T03:10:13.135Z,96.01
2022-12-16T03:12:42.637Z,96.40
2022-12-16T03:15:10.957Z,96.35
2022-12-16T03:17:38.908Z,96.49
2022-12-16T03:20:45.969Z,96.56
2022-12-16T03:23:17.872Z,96.67
2022-12-16T03:25:47.807Z,97.10
2022-12-16T03:28:37.056Z,96.98
2022-12-16T03:31:30.478Z,97.12
2022-12-16T03:34:25.941Z,97.21
2022-12-16T03:36:58.073Z,97.37
2022-12-16T03:39:27.226Z,97.49
2022-12-16T03:41:54.639Z,97.50
2022-12-16T03:44:25.066Z,97.32
2022-12-16T03:46:52.699Z,97.66
2022-12-16T03:49:19.716Z,97.66
2022-12-16T03:51:46.722Z,97.68
2022-12-16T03:54:13.720Z,97.93
2022-12-16T03:56:40.701Z,97.85
2022-12-16T03:59:07.635Z,97.71
2022-12-16T04:01:34.788Z,97.62
2022-12-16T04:04:01.872Z,97.56
2022-12-16T04:06:28.866Z,97.62
2022-12-16T04:08:55.939Z,97.82
2022-12-16T04:11:41.566Z,97.61
2022-12-16T04:14:27.914Z,97.87
2022-12-16T04:17:14.057Z,98.12
2022-12-16T04:20:01.881Z,98.19
2022-12-16T04:22:55.119Z,97.91
2022-12-16T04:25:24.873Z,98.05
2022-12-16T04:27:51.987Z,97.83
2022-12-16T04:30:20.292Z,98.00
2022-12-16T04:33:05.807Z,98.31
2022-12-16T04:35:51.575Z,98.63
2022-12-16T04:38:46.307Z,98.32
2022-12-16T04:41:32.067Z,98.76
2022-12-16T04:44:18.180Z,98.75
2022-12-16T04:47:04.389Z,98.46
2022-12-16T04:49:50.883Z,98.48
2022-12-16T04:52:36.467Z,98.19
2022-12-16T04:55:28.325Z,98.31
2022-12-16T04:58:16.108Z,98.20
2022-12-16T05:01:03.133Z,98.02
2022-12-16T05:03:49.007Z,97.96
2022-12-16T05:06:35.026Z,97.86
2022-12-16T05:09:20.747Z,97.78
2022-12-16T05:12:06.579Z,97.78
2022-12-16T05:14:52.027Z,97.75
2022-12-16T05:17:38.699Z,97.79
2022-12-16T05:20:25.037Z,97.56
2022-12-16T05:23:10.728Z,97.74
2022-12-16T05:25:56.227Z,97.67
2022-12-16T05:28:41.824Z,97.91
2022-12-16T05:31:27.574Z,97.90
2022-12-16T05:34:13.091Z,97.63
2022-12-16T05:36:58.919Z,97.48
2022-12-16T05:39:44.469Z,97.31
2022-12-16T05:42:31.238Z,97.12
2022-12-16T05:45:16.782Z,96.89
2022-12-16T05:48:02.433Z,96.71
2022-12-16T05:50:47.939Z,96.45
2022-12-16T05:53:33.941Z,95.99
2022-12-16T05:56:19.714Z,95.70
2022-12-16T05:59:05.504Z,95.44
2022-12-16T06:01:51.064Z,95.12
2022-12-16T06:04:36.721Z,94.89
2022-12-16T06:07:22.377Z,94.25
2022-12-16T06:10:08.167Z,93.43
2022-12-16T06:12:53.851Z,93.43
2022-12-16T06:15:42.403Z,93.11
2022-12-16T06:18:28.100Z,92.49
2022-12-16T06:21:14.030Z,92.08
2022-12-16T06:23:59.649Z,91.59
2022-12-16T06:26:45.528Z,91.17
2022-12-16T06:29:33.341Z,91.35
2022-12-16T06:32:20.266Z,91.28
2022-12-16T06:35:05.761Z,91.43
2022-12-16T06:37:51.241Z,90.72
2022-12-16T06:40:36.853Z,90.35
2022-12-16T06:43:22.254Z,89.90
2022-12-16T06:46:07.924Z,89.61
2022-12-16T06:48:53.515Z,88.81
2022-12-16T06:51:39.341Z,87.97
2022-12-16T06:54:29.537Z,87.90
2022-12-16T06:57:15.389Z,87.79
2022-12-16T07:00:01.548Z,88.00
2022-12-16T07:02:49.432Z,86.67
2022-12-16T07:05:35.135Z,86.66
2022-12-16T07:08:20.356Z,86.65
2022-12-16T07:11:16.139Z,86.74
2022-12-16T07:14:03.410Z,85.74
2022-12-16T07:16:48.910Z,84.98
2022-12-16T07:19:34.845Z,84.99
2022-12-16T07:22:20.575Z,84.45
2022-12-16T07:25:06.316Z,84.34
2022-12-16T07:27:52.061Z,84.21
2022-12-16T07:30:37.655Z,83.80
2022-12-16T07:33:23.061Z,82.31
2022-12-16T07:36:08.654Z,81.83
2022-12-16T07:38:55.163Z,81.74
2022-12-16T07:41:40.641Z,81.69
2022-12-16T07:44:26.334Z,81.70
2022-12-16T07:47:12.054Z,81.64
2022-12-16T07:50:00.180Z,80.73
2022-12-16T07:52:45.611Z,80.78
2022-12-16T07:55:31.239Z,80.94
2022-12-16T07:58:19.822Z,81.23
2022-12-16T08:01:17.631Z,80.90
2022-12-16T08:04:03.355Z,81.20
2022-12-16T08:06:49.856Z,81.29
2022-12-16T08:09:35.458Z,81.45
2022-12-16T08:12:21.052Z,81.63
2022-12-16T08:15:06.749Z,81.29
2022-12-16T08:17:52.519Z,80.75
2022-12-16T08:20:38.568Z,80.76
2022-12-16T08:23:24.298Z,80.59
2022-12-16T08:26:09.775Z,80.46
2022-12-16T08:28:55.639Z,80.84
2022-12-16T08:31:48.530Z,80.53
2022-12-16T08:34:35.703Z,80.40
2022-12-16T08:37:21.267Z,79.93
2022-12-16T08:40:37.355Z,79.61
2022-12-16T08:43:15.664Z,79.52
2022-12-16T08:46:01.966Z,79.72
2022-12-16T08:48:47.852Z,79.21
2022-12-16T08:51:38.430Z,79.44
2022-12-16T08:54:24.786Z,78.77
2022-12-16T08:57:12.836Z,79.09
2022-12-16T08:59:59.979Z,79.22
2022-12-16T09:02:45.880Z,78.74
2022-12-16T09:05:31.520Z,78.54
2022-12-16T09:08:21.737Z,78.48
2022-12-16T09:11:08.733Z,78.01
2022-12-16T09:13:54.313Z,78.32
2022-12-16T09:16:40.446Z,78.71
2022-12-16T09:19:26.492Z,78.47
2022-12-16T09:22:12.112Z,78.16
2022-12-16T09:24:57.625Z,78.33
2022-12-16T09:30:42.755Z,78.31
2022-12-16T09:33:28.651Z,77.88
2022-12-16T09:36:14.664Z,77.42
2022-12-16T09:39:00.149Z,77.78
2022-12-16T09:41:55.645Z,77.81
2022-12-16T09:45:17.132Z,77.66
2022-12-16T09:48:50.169Z,76.92
2022-12-16T09:51:41.534Z,77.06
2022-12-16T09:57:33.103Z,76.15
2022-12-16T10:00:37.401Z,76.15
2022-12-16T10:03:31.764Z,75.71
2022-12-16T10:06:42.268Z,75.31
2022-12-16T10:10:00.814Z,75.01
2022-12-16T10:12:59.891Z,74.59
2022-12-16T10:15:48.145Z,74.45
2022-12-16T10:18:51.808Z,72.95
2022-12-16T10:21:42.568Z,72.55
2022-12-16T10:24:34.290Z,72.25
2022-12-16T10:27:36.054Z,72.78
2022-12-16T10:30:22.208Z,71.92
2022-12-16T10:33:14.465Z,72.11
2022-12-16T10:36:10.563Z,72.03
2022-12-16T10:38:55.923Z,72.37
2022-12-16T10:41:45.548Z,72.31
2022-12-16T10:44:55.714Z,72.82
2022-12-16T10:47:41.350Z,72.95
2022-12-16T10:50:32.117Z,73.39
2022-12-16T10:53:23.803Z,73.31
2022-12-16T10:56:43.254Z,73.66
2022-12-16T10:59:29.379Z,74.42
2022-12-16T11:02:16.331Z,74.43
2022-12-16T11:05:02.747Z,74.26
2022-12-16T11:07:51.980Z,74.38
2022-12-16T11:10:51.171Z,73.87
2022-12-16T11:14:05.885Z,74.03
2022-12-16T11:16:52.555Z,74.05
2022-12-16T11:19:50.386Z,74.29
2022-12-16T11:22:42.211Z,74.51
2022-12-16T11:25:35.840Z,74.68
2022-12-16T11:28:33.053Z,74.31
2022-12-16T11:31:23.047Z,74.62
2022-12-16T11:34:09.661Z,74.59
2022-12-16T11:36:55.910Z,74.78
2022-12-16T11:39:43.305Z,74.38
2022-12-16T11:42:37.063Z,74.67
2022-12-16T11:45:24.457Z,74.63
2022-12-16T11:48:13.439Z,74.83
2022-12-16T11:51:09.549Z,75.15
2022-12-16T11:54:05.019Z,75.05
2022-12-16T11:56:55.384Z,75.07
2022-12-16T12:00:03.895Z,75.34
2022-12-16T12:03:03.383Z,75.59
2022-12-16T12:05:57.858Z,75.77
2022-12-16T12:08:52.264Z,75.70
2022-12-16T12:11:54.534Z,76.25
2022-12-16T12:14:52.171Z,76.37
2022-12-16T12:18:02.423Z,76.28
2022-12-16T12:21:13.963Z,76.69
2022-12-16T12:24:15.155Z,77.07
2022-12-16T12:27:06.545Z,77.55
2022-12-16T12:30:34.080Z,77.77
2022-12-16T12:33:40.653Z,77.66
2022-12-16T12:36:38.486Z,77.72
2022-12-16T12:39:38.740Z,77.94
2022-12-16T12:42:49.574Z,77.75
2022-12-16T12:45:45.065Z,77.52
2022-12-16T12:48:39.572Z,77.58
2022-12-16T12:51:34.222Z,77.75
2022-12-16T12:54:53.631Z,78.24
2022-12-16T12:57:42.478Z,78.05
2022-12-16T13:00:36.516Z,78.27
2022-12-16T13:03:36.192Z,78.34
2022-12-16T13:06:22.540Z,78.12
2022-12-16T13:09:08.358Z,78.59
2022-12-16T13:11:59.345Z,78.95
2022-12-16T13:14:51.257Z,79.17
2022-12-16T13:17:41.642Z,78.76
2022-12-16T13:20:52.401Z,78.83
2022-12-16T13:23:46.931Z,79.00
2022-12-16T13:26:40.580Z,79.34
2022-12-16T13:29:49.383Z,79.73
2022-12-16T13:32:40.902Z,79.79
2022-12-16T13:35:29.087Z,79.98
2022-12-16T13:38:17.776Z,80.17
2022-12-16T13:41:26.122Z,80.21
2022-12-16T13:44:16.317Z,80.29
2022-12-16T13:47:12.240Z,80.58
2022-12-16T13:50:07.346Z,80.85
2022-12-16T13:52:58.958Z,80.73
2022-12-16T13:55:54.686Z,80.55
2022-12-16T13:58:57.150Z,80.35
2022-12-16T14:02:00.306Z,80.12
2022-12-16T14:05:08.315Z,80.29
2022-12-16T14:07:59.291Z,80.05
2022-12-16T14:10:58.344Z,80.33
2022-12-16T14:14:48.246Z,80.53
2022-12-16T14:17:43.067Z,80.08
2022-12-16T14:20:40.290Z,80.55
2022-12-16T14:23:59.172Z,80.36
2022-12-16T14:26:45.494Z,80.26
2022-12-16T14:29:47.927Z,79.94
2022-12-16T14:32:48.592Z,80.10
2022-12-16T14:35:40.000Z,80.10
2022-12-16T14:38:42.190Z,80.12
2022-12-16T14:41:41.437Z,80.40
2022-12-16T14:44:45.684Z,80.04
2022-12-16T14:47:36.102Z,80.00
2022-12-16T14:50:22.258Z,79.53
2022-12-16T14:53:07.756Z,79.37
2022-12-16T14:55:54.202Z,79.70
2022-12-16T14:58:46.786Z,80.07
2022-12-16T15:01:42.045Z,79.74
2022-12-16T15:04:36.842Z,79.93
2022-12-16T15:07:30.976Z,79.52
2022-12-16T15:10:18.301Z,79.69
2022-12-16T15:13:04.740Z,79.10
2022-12-16T15:16:01.582Z,79.29
2022-12-16T15:18:53.772Z,79.71
2022-12-16T15:21:39.662Z,79.83
2022-12-16T15:24:39.616Z,79.72
2022-12-16T15:27:40.063Z,79.66
2022-12-16T15:30:53.160Z,79.41
2022-12-16T15:33:41.197Z,79.51
2022-12-16T15:36:48.770Z,79.72
2022-12-16T15:39:48.323Z,79.90
2022-12-16T15:43:04.657Z,80.14
2022-12-16T15:45:51.233Z,79.96
2022-12-16T15:48:48.614Z,80.33
2022-12-16T15:51:47.832Z,80.36
2022-12-16T15:54:40.913Z,80.39
2022-12-16T15:57:49.171Z,80.76
2022-12-16T16:00:40.753Z,81.07
2022-12-16T16:03:46.135Z,81.09
2022-12-16T16:06:40.836Z,81.15
2022-12-16T16:12:40.135Z,81.24
2022-12-16T16:15:28.432Z,81.36
2022-12-16T16:18:17.612Z,81.59
2022-12-16T16:21:03.375Z,81.75
2022-12-16T16:23:50.425Z,82.00
2022-12-16T16:26:37.901Z,81.45
2022-12-16T16:29:23.954Z,80.80
2022-12-16T16:32:09.470Z,80.83
2022-12-16T16:34:55.234Z,80.48
2022-12-16T16:37:40.985Z,80.51
2022-12-16T16:40:55.189Z,80.62
2022-12-16T16:43:41.589Z,80.89
2022-12-16T16:46:39.724Z,81.07
2022-12-16T16:49:29.641Z,81.54
2022-12-16T16:52:15.229Z,81.62
2022-12-16T16:55:00.867Z,80.96
2022-12-16T16:57:51.479Z,80.64
2022-12-16T17:00:37.376Z,80.67
2022-12-16T17:03:23.234Z,81.03
2022-12-16T17:09:29.950Z,81.56
2022-12-16T17:12:35.697Z,81.87
2022-12-16T17:15:21.789Z,81.64
2022-12-16T17:18:07.152Z,81.59
2022-12-16T17:20:57.901Z,81.83
2022-12-16T17:23:43.519Z,81.94
2022-12-16T17:26:30.403Z,82.07
2022-12-16T17:29:16.141Z,82.19
2022-12-16T17:32:02.410Z,82.27
2022-12-16T17:34:48.107Z,82.27
2022-12-16T17:37:33.910Z,81.74
2022-12-16T17:40:19.730Z,81.78
2022-12-16T17:43:05.681Z,81.83
2022-12-16T17:49:30.194Z,81.87
2022-12-16T17:52:15.778Z,81.91
2022-12-16T17:55:01.552Z,81.79
2022-12-16T17:57:49.794Z,81.79
2022-12-16T18:00:35.675Z,82.00
2022-12-16T18:03:21.495Z,81.94
2022-12-16T18:06:08.473Z,82.31
2022-12-16T18:08:57.075Z,82.28
2022-12-16T18:11:43.276Z,82.37
2022-12-16T18:14:28.774Z,82.38
2022-12-16T18:17:16.146Z,82.13
2022-12-16T18:20:01.554Z,81.87
2022-12-16T18:22:49.315Z,81.82
2022-12-16T18:25:34.782Z,82.09
2022-12-16T18:28:20.539Z,82.01
2022-12-16T18:31:06.909Z,82.10
2022-12-16T18:33:53.081Z,82.09
2022-12-16T18:36:38.545Z,82.06
2022-12-16T18:39:24.412Z,81.98
2022-12-16T18:42:09.989Z,82.15
2022-12-16T18:45:00.882Z,82.47
2022-12-16T18:47:50.811Z,82.30
2022-12-16T18:50:38.298Z,82.14
2022-12-16T18:53:24.593Z,82.32
2022-12-16T18:59:24.567Z,82.21
2022-12-16T19:02:10.198Z,82.22
2022-12-16T19:04:55.700Z,82.21
2022-12-16T19:07:41.547Z,82.41
2022-12-16T19:10:27.562Z,82.53
2022-12-16T19:13:19.135Z,82.45
2022-12-16T19:16:15.460Z,82.27
2022-12-16T19:19:00.953Z,82.34
2022-12-16T19:24:52.231Z,82.16
2022-12-16T19:27:38.122Z,82.17
2022-12-16T19:30:24.497Z,82.31
2022-12-16T19:33:11.875Z,82.39
2022-12-16T19:36:00.435Z,82.11
2022-12-16T19:38:45.842Z,82.20
2022-12-16T19:41:35.162Z,82.02
2022-12-16T19:44:29.477Z,82.47
2022-12-16T19:47:15.229Z,82.10
2022-12-16T19:50:01.085Z,82.21
2022-12-16T19:52:48.528Z,82.22
2022-12-16T19:55:34.183Z,82.39
2022-12-16T19:58:19.790Z,82.36
2022-12-16T20:01:05.432Z,82.15
2022-12-16T20:03:52.376Z,82.20
2022-12-16T20:06:42.236Z,82.40
2022-12-16T20:09:27.959Z,82.25
2022-12-16T20:12:13.565Z,82.45
2022-12-16T20:14:59.247Z,82.46
2022-12-16T20:17:44.829Z,82.48
2022-12-16T20:20:33.117Z,82.65
2022-12-16T20:23:18.406Z,82.73
2022-12-16T20:26:12.710Z,82.76
2022-12-16T20:28:58.275Z,82.76
2022-12-16T20:31:44.358Z,82.82
2022-12-16T20:34:29.991Z,82.92
2022-12-16T20:37:15.796Z,82.92
2022-12-16T20:40:01.759Z,83.08
2022-12-16T20:42:49.247Z,83.17
2022-12-16T20:45:36.190Z,82.92
2022-12-16T20:48:21.777Z,82.84
2022-12-16T20:51:25.880Z,82.99
2022-12-16T20:54:12.596Z,83.22
2022-12-16T20:56:59.786Z,83.36
2022-12-16T20:59:45.742Z,83.22
2022-12-16T21:05:37.680Z,83.62
2022-12-16T21:08:23.517Z,83.38
2022-12-16T21:11:09.314Z,83.60
2022-12-16T21:13:56.274Z,83.54
2022-12-16T21:16:42.269Z,83.54
2022-12-16T21:19:33.074Z,83.55
2022-12-16T21:22:19.639Z,83.41
2022-12-16T21:25:12.986Z,83.31
2022-12-16T21:30:58.096Z,83.44
2022-12-16T21:33:43.800Z,83.26
2022-12-16T21:36:30.044Z,83.20
2022-12-16T21:42:20.567Z,83.42
2022-12-16T21:45:05.995Z,83.27
2022-12-16T21:47:51.973Z,83.39
2022-12-16T21:50:42.828Z,83.36
2022-12-16T21:53:28.992Z,83.36
2022-12-16T21:56:15.422Z,83.13
2022-12-16T21:59:02.203Z,83.51
2022-12-16T22:01:53.430Z,83.57
2022-12-16T22:04:42.228Z,83.91
2022-12-16T22:07:27.928Z,83.89
2022-12-16T22:10:13.867Z,83.78
2022-12-16T22:12:59.744Z,83.81
2022-12-16T22:15:45.200Z,83.41
2022-12-16T22:18:30.851Z,83.47
2022-12-16T22:21:21.324Z,83.79
2022-12-16T22:24:06.987Z,83.77
2022-12-16T22:26:53.388Z,83.83
2022-12-16T22:29:38.824Z,83.82
2022-12-16T22:32:24.844Z,83.80
2022-12-16T22:35:27.021Z,83.79
2022-12-16T22:38:12.939Z,83.84
2022-12-16T22:40:58.747Z,83.67
2022-12-16T22:43:48.223Z,83.67
2022-12-16T22:46:34.031Z,83.63
2022-12-16T22:49:19.730Z,83.50
2022-12-16T22:52:05.697Z,83.46
2022-12-16T22:54:58.962Z,83.43
2022-12-16T22:57:47.091Z,83.65
2022-12-16T23:00:33.827Z,83.49
2022-12-16T23:03:19.184Z,83.31
2022-12-16T23:06:06.619Z,83.57
2022-12-16T23:08:51.902Z,83.77
2022-12-16T23:11:38.735Z,83.39
2022-12-16T23:14:24.048Z,83.52
2022-12-16T23:17:09.763Z,83.58
2022-12-16T23:19:56.441Z,83.46
2022-12-16T23:22:42.263Z,83.67
2022-12-16T23:25:28.069Z,83.74
2022-12-16T23:28:14.897Z,83.87
2022-12-16T23:31:00.297Z,84.14
2022-12-16T23:33:46.087Z,84.04
2022-12-16T23:36:43.428Z,83.97
2022-12-16T23:39:29.187Z,83.93
2022-12-16T23:42:15.496Z,83.88
2022-12-16T23:45:00.923Z,83.92
2022-12-16T23:47:47.067Z,83.90
2022-12-16T23:50:32.831Z,83.91
2022-12-16T23:53:26.018Z,84.04
2022-12-16T23:56:18.291Z,84.02
2022-12-16T23:59:07.035Z,84.00
